createdAt,value
2022-12-18T00:00:47.692Z,70.83
2022-12-18T00:04:49.412Z,63.00
2022-12-18T00:08:51.984Z,58.90
2022-12-18T00:12:53.965Z,71.33
2022-12-18T00:16:55.715Z,68.10
2022-12-18T00:21:01.055Z,85.37
2022-12-18T00:25:03.470Z,76.00
2022-12-18T00:29:14.678Z,95.23
2022-12-18T00:33:16.434Z,82.23
2022-12-18T00:37:20.256Z,73.93
2022-12-18T00:41:45.686Z,92.30
2022-12-18T00:45:47.539Z,81.23
2022-12-18T00:49:49.337Z,74.53
2022-12-18T00:53:51.300Z,63.53
2022-12-18T00:57:53.502Z,56.50
2022-12-18T01:01:55.391Z,60.27
2022-12-18T01:05:57.530Z,70.97
2022-12-18T01:09:59.359Z,67.63
2022-12-18T01:14:01.850Z,92.00
2022-12-18T01:18:06.687Z,64.87
2022-12-18T01:22:08.558Z,57.00
2022-12-18T01:26:13.965Z,52.57
2022-12-18T01:30:15.941Z,54.27
2022-12-18T01:34:17.758Z,65.77
2022-12-18T01:38:19.491Z,58.17
2022-12-18T01:42:21.982Z,60.97
2022-12-18T01:46:25.801Z,63.03
2022-12-18T01:50:36.840Z,69.53
2022-12-18T01:54:38.730Z,73.43
2022-12-18T01:59:14.201Z,72.77
2022-12-18T02:03:16.178Z,70.60
2022-12-18T02:07:42.583Z,63.10
2022-12-18T02:12:03.260Z,62.60
2022-12-18T02:16:23.632Z,84.93
2022-12-18T02:20:42.995Z,65.50
2022-12-18T02:25:03.423Z,95.17
2022-12-18T02:29:32.550Z,66.10
2022-12-18T02:33:37.053Z,94.83
2022-12-18T02:37:41.087Z,78.17
2022-12-18T02:41:43.207Z,65.00
2022-12-18T02:45:58.483Z,62.87
2022-12-18T02:50:31.615Z,59.73
2022-12-18T02:54:33.850Z,62.97
2022-12-18T02:59:10.699Z,63.77
2022-12-18T03:03:31.189Z,66.67
2022-12-18T03:07:42.892Z,60.20
2022-12-18T03:12:12.983Z,95.10
2022-12-18T03:16:23.302Z,61.70
2022-12-18T03:20:29.679Z,78.53
2022-12-18T03:24:34.053Z,74.13
2022-12-18T03:28:40.706Z,83.67
2022-12-18T03:32:58.810Z,79.37
2022-12-18T03:37:04.104Z,80.83
2022-12-18T03:41:16.509Z,72.67
2022-12-18T03:45:43.721Z,72.93
2022-12-18T03:50:01.137Z,80.90
2022-12-18T03:54:09.758Z,73.40
2022-12-18T03:58:20.211Z,71.20
2022-12-18T04:02:34.610Z,82.13
2022-12-18T04:06:39.428Z,66.30
2022-12-18T04:10:42.796Z,78.73
2022-12-18T04:14:45.818Z,70.40
2022-12-18T04:18:48.643Z,74.93
2022-12-18T04:22:50.615Z,69.53
2022-12-18T04:26:53.901Z,78.97
2022-12-18T04:31:03.444Z,99.33
2022-12-18T04:35:07.544Z,83.63
2022-12-18T04:39:10.248Z,70.63
2022-12-18T04:43:12.424Z,81.97
2022-12-18T04:47:14.802Z,72.87
2022-12-18T04:51:16.664Z,81.83
2022-12-18T04:55:18.549Z,75.57
2022-12-18T04:59:20.315Z,79.90
2022-12-18T05:03:22.142Z,85.00
2022-12-18T05:07:23.954Z,77.23
2022-12-18T05:11:25.859Z,85.30
2022-12-18T05:15:31.885Z,80.63
2022-12-18T05:19:33.642Z,73.10
2022-12-18T05:23:35.861Z,65.23
2022-12-18T05:27:37.610Z,74.00
2022-12-18T05:31:40.035Z,61.00
2022-12-18T05:35:41.881Z,64.33
2022-12-18T05:39:45.150Z,74.30
2022-12-18T05:43:46.989Z,70.40
2022-12-18T05:47:48.699Z,77.13
2022-12-18T05:51:50.713Z,77.00
2022-12-18T05:55:52.487Z,73.17
2022-12-18T05:59:54.652Z,68.93
2022-12-18T06:03:56.803Z,67.77
2022-12-18T06:07:58.597Z,68.40
2022-12-18T06:12:00.541Z,60.77
2022-12-18T06:16:06.388Z,58.20
2022-12-18T06:20:08.686Z,59.80
2022-12-18T06:24:10.988Z,57.70
2022-12-18T06:28:12.817Z,67.67
2022-12-18T06:32:14.595Z,64.70
2022-12-18T06:36:17.609Z,50.43
2022-12-18T06:40:19.546Z,55.50
2022-12-18T06:44:21.389Z,56.57
2022-12-18T06:48:23.146Z,56.57
2022-12-18T06:52:24.889Z,54.67
2022-12-18T06:56:26.694Z,53.83
2022-12-18T07:00:28.492Z,58.30
2022-12-18T07:04:31.327Z,57.80
2022-12-18T07:08:33.787Z,59.87
2022-12-18T07:12:35.865Z,52.90
2022-12-18T07:16:37.644Z,54.67
2022-12-18T07:20:39.466Z,52.30
2022-12-18T07:24:41.276Z,48.33
2022-12-18T07:28:43.181Z,51.67
2022-12-18T07:32:45.031Z,53.20
2022-12-18T07:36:46.842Z,49.27
2022-12-18T07:40:48.682Z,53.43
2022-12-18T07:44:50.471Z,51.77
2022-12-18T07:48:52.179Z,49.67
2022-12-18T07:52:53.930Z,51.37
2022-12-18T07:56:55.662Z,51.20
2022-12-18T08:01:05.250Z,54.40
2022-12-18T08:05:08.799Z,50.13
2022-12-18T08:09:11.533Z,51.97
2022-12-18T08:13:13.243Z,56.20
2022-12-18T08:17:15.061Z,52.37
2022-12-18T08:21:17.958Z,48.07
2022-12-18T08:25:19.706Z,49.87
2022-12-18T08:29:21.818Z,47.37
2022-12-18T08:33:23.853Z,45.53
2022-12-18T08:37:26.089Z,47.27
2022-12-18T08:41:27.934Z,51.80
2022-12-18T08:45:29.827Z,51.97
2022-12-18T08:49:31.632Z,52.17
2022-12-18T08:53:35.755Z,53.03
2022-12-18T08:57:37.958Z,48.27
2022-12-18T09:01:39.785Z,51.20
2022-12-18T09:05:41.852Z,51.63
2022-12-18T09:09:43.793Z,51.20
2022-12-18T09:13:45.536Z,53.53
2022-12-18T09:17:47.418Z,47.43
2022-12-18T09:21:49.381Z,49.73
2022-12-18T09:25:51.105Z,49.40
2022-12-18T09:29:52.860Z,49.93
2022-12-18T09:33:56.980Z,48.60
2022-12-18T09:37:58.939Z,49.20
2022-12-18T09:42:00.892Z,44.57
2022-12-18T09:46:07.998Z,47.30
2022-12-18T09:50:32.653Z,52.77
2022-12-18T09:54:39.490Z,46.43
2022-12-18T09:58:56.343Z,50.27
2022-12-18T10:03:10.514Z,49.23
2022-12-18T10:07:30.454Z,53.37
2022-12-18T10:11:59.085Z,49.13
2022-12-18T10:16:14.078Z,47.53
2022-12-18T10:20:29.500Z,48.90
2022-12-18T10:24:49.196Z,56.10
2022-12-18T10:28:52.933Z,55.93
2022-12-18T10:32:55.237Z,54.00
2022-12-18T10:36:57.735Z,56.93
2022-12-18T10:40:59.867Z,50.40
2022-12-18T10:45:16.998Z,53.33
2022-12-18T10:49:28.343Z,49.50
2022-12-18T10:53:32.631Z,53.63
2022-12-18T10:57:39.987Z,60.63
2022-12-18T11:02:00.049Z,64.23
2022-12-18T11:06:16.892Z,57.13
2022-12-18T11:10:20.943Z,61.63
2022-12-18T11:14:35.072Z,55.63
2022-12-18T11:18:37.320Z,56.50
2022-12-18T11:22:41.153Z,55.67
2022-12-18T11:26:44.318Z,51.97
2022-12-18T11:30:46.082Z,53.50
2022-12-18T11:34:56.001Z,58.63
2022-12-18T11:39:13.093Z,57.63
2022-12-18T11:43:22.848Z,51.57
2022-12-18T11:47:48.997Z,54.13
2022-12-18T11:52:10.454Z,64.07
2022-12-18T11:56:27.231Z,73.30
2022-12-18T12:00:29.551Z,64.20
2022-12-18T12:04:49.180Z,57.00
2022-12-18T12:09:10.497Z,57.03
2022-12-18T12:13:43.803Z,60.13
2022-12-18T12:18:11.226Z,60.57
2022-12-18T12:22:32.100Z,62.57
2022-12-18T12:26:43.957Z,55.10
2022-12-18T12:31:04.129Z,57.80
2022-12-18T12:35:32.942Z,52.47
2022-12-18T12:39:41.707Z,62.40
2022-12-18T12:43:51.601Z,63.57
2022-12-18T12:47:55.469Z,57.77
2022-12-18T12:52:30.220Z,57.03
2022-12-18T12:57:00.228Z,56.53
2022-12-18T13:01:24.129Z,68.10
2022-12-18T13:05:55.785Z,67.03
2022-12-18T13:10:26.813Z,71.90
2022-12-18T13:14:38.740Z,62.73
2022-12-18T13:18:51.054Z,60.30
2022-12-18T13:22:53.529Z,55.33
2022-12-18T13:26:55.624Z,62.53
2022-12-18T13:30:58.628Z,59.87
2022-12-18T13:35:18.862Z,60.17
2022-12-18T13:39:30.062Z,63.93
2022-12-18T13:43:43.916Z,72.47
2022-12-18T13:47:46.254Z,58.47
2022-12-18T13:51:51.216Z,53.97
2022-12-18T13:55:54.382Z,63.90
2022-12-18T13:59:58.116Z,53.53
2022-12-18T14:04:20.034Z,56.37
2022-12-18T14:08:22.102Z,57.40
2022-12-18T14:12:46.358Z,60.10
2022-12-18T14:16:50.106Z,61.83
2022-12-18T14:20:54.898Z,58.07
2022-12-18T14:25:16.014Z,63.00
2022-12-18T14:29:20.450Z,54.40
2022-12-18T14:33:27.056Z,61.53
2022-12-18T14:37:28.843Z,77.67
2022-12-18T14:41:30.624Z,62.87
2022-12-18T14:45:43.840Z,58.60
2022-12-18T14:49:46.358Z,54.10
2022-12-18T14:54:01.335Z,57.07
2022-12-18T14:58:03.220Z,59.53
2022-12-18T15:02:17.584Z,55.83
2022-12-18T15:06:32.794Z,51.97
2022-12-18T15:10:35.570Z,53.40
2022-12-18T15:14:41.988Z,56.27
2022-12-18T15:18:46.141Z,48.83
2022-12-18T15:22:48.592Z,54.13
2022-12-18T15:26:50.321Z,50.57
2022-12-18T15:31:06.439Z,53.17
2022-12-18T15:35:23.272Z,49.77
2022-12-18T15:39:25.524Z,58.10
2022-12-18T15:43:37.601Z,59.47
2022-12-18T15:47:39.884Z,59.70
2022-12-18T15:51:41.791Z,55.20
2022-12-18T15:56:02.070Z,52.27
2022-12-18T16:00:04.406Z,63.83
2022-12-18T16:04:06.817Z,63.33
2022-12-18T16:08:08.634Z,54.80
2022-12-18T16:12:21.699Z,52.00
2022-12-18T16:16:23.581Z,47.83
2022-12-18T16:20:26.029Z,44.27
2022-12-18T16:24:30.472Z,54.37
2022-12-18T16:28:32.245Z,53.17
2022-12-18T16:32:34.004Z,52.83
2022-12-18T16:36:35.847Z,51.27
2022-12-18T16:40:59.078Z,53.23
2022-12-18T16:45:00.845Z,51.60
2022-12-18T16:49:02.701Z,52.80
2022-12-18T16:53:04.477Z,56.37
2022-12-18T16:57:06.475Z,86.87
2022-12-18T17:01:11.272Z,51.07
2022-12-18T17:05:13.098Z,51.67
2022-12-18T17:09:17.195Z,57.37
2022-12-18T17:13:22.688Z,56.37
2022-12-18T17:17:27.517Z,54.67
2022-12-18T17:21:29.450Z,54.13
2022-12-18T17:25:31.203Z,48.23
2022-12-18T17:29:33.118Z,52.53
2022-12-18T17:33:35.398Z,50.30
2022-12-18T17:37:37.303Z,69.23
2022-12-18T17:41:39.159Z,56.90
2022-12-18T17:45:41.068Z,51.97
2022-12-18T17:49:42.846Z,54.30
2022-12-18T17:53:45.219Z,60.80
2022-12-18T17:57:47.653Z,51.17
2022-12-18T18:01:49.575Z,49.27
2022-12-18T18:05:58.569Z,47.83
2022-12-18T18:10:00.330Z,45.20
2022-12-18T18:14:05.113Z,54.67
2022-12-18T18:18:06.856Z,58.47
2022-12-18T18:22:08.653Z,52.87
2022-12-18T18:26:10.475Z,55.63
2022-12-18T18:30:12.747Z,48.57
2022-12-18T18:34:23.194Z,51.93
2022-12-18T18:38:25.310Z,77.27
2022-12-18T18:42:27.157Z,59.33
2022-12-18T18:46:29.017Z,64.83
2022-12-18T18:50:30.889Z,60.10
2022-12-18T18:54:32.903Z,70.50
2022-12-18T18:58:34.907Z,57.30
2022-12-18T19:02:37.071Z,57.60
2022-12-18T19:06:42.640Z,57.07
2022-12-18T19:10:45.012Z,59.07
2022-12-18T19:14:47.034Z,59.67
2022-12-18T19:18:49.504Z,65.63
2022-12-18T19:22:56.307Z,54.13
2022-12-18T19:26:58.345Z,62.77
2022-12-18T19:31:02.863Z,66.57
2022-12-18T19:35:05.005Z,62.10
2022-12-18T19:39:12.942Z,60.33
2022-12-18T19:43:15.124Z,53.83
2022-12-18T19:47:17.943Z,60.73
2022-12-18T19:51:23.344Z,55.97
2022-12-18T19:55:25.130Z,63.00
2022-12-18T19:59:27.177Z,58.37
2022-12-18T20:03:32.496Z,63.10
2022-12-18T20:07:34.698Z,58.10
2022-12-18T20:11:41.481Z,65.43
2022-12-18T20:15:45.442Z,58.30
2022-12-18T20:19:47.574Z,63.10
2022-12-18T20:23:49.440Z,62.03
2022-12-18T20:27:51.394Z,61.90
2022-12-18T20:31:53.601Z,83.27
2022-12-18T20:36:05.856Z,105.20
2022-12-18T20:40:08.775Z,109.93
2022-12-18T20:44:23.564Z,90.50
2022-12-18T20:48:26.810Z,67.37
2022-12-18T20:52:28.608Z,73.57
2022-12-18T20:56:33.413Z,88.13
2022-12-18T21:00:35.328Z,83.67
2022-12-18T21:04:37.208Z,88.40
2022-12-18T21:08:39.093Z,77.70
2022-12-18T21:13:03.152Z,75.97
2022-12-18T21:17:06.607Z,74.27
2022-12-18T21:21:08.486Z,77.47
2022-12-18T21:25:10.476Z,70.73
2022-12-18T21:29:15.087Z,66.73
2022-12-18T21:33:17.126Z,98.40
2022-12-18T21:37:18.932Z,79.70
2022-12-18T21:41:42.305Z,66.17
2022-12-18T21:45:44.467Z,67.97
2022-12-18T21:49:46.338Z,71.33
2022-12-18T21:53:48.619Z,67.80
2022-12-18T21:57:53.950Z,75.47
2022-12-18T22:01:58.318Z,62.83
2022-12-18T22:06:09.018Z,71.13
2022-12-18T22:10:11.504Z,75.60
2022-12-18T22:14:14.754Z,75.37
2022-12-18T22:18:16.457Z,70.57
2022-12-18T22:22:18.220Z,68.93
2022-12-18T22:26:21.305Z,68.00
2022-12-18T22:30:23.028Z,79.43
2022-12-18T22:34:24.761Z,76.73
2022-12-18T22:38:26.504Z,78.83
2022-12-18T22:42:28.355Z,75.77
2022-12-18T22:46:33.337Z,77.87
2022-12-18T22:50:35.209Z,83.23
2022-12-18T22:54:37.055Z,79.07
2022-12-18T22:58:38.900Z,78.97
2022-12-18T23:02:40.873Z,95.40
2022-12-18T23:06:44.263Z,80.00
2022-12-18T23:10:46.188Z,78.90
2022-12-18T23:14:47.934Z,81.80
2022-12-18T23:18:54.904Z,85.03
2022-12-18T23:22:56.778Z,86.73
2022-12-18T23:26:58.496Z,83.03
2022-12-18T23:31:21.475Z,89.70
2022-12-18T23:35:23.375Z,72.97
2022-12-18T23:39:29.808Z,88.33
2022-12-18T23:43:32.037Z,90.27
2022-12-18T23:47:33.776Z,95.80
2022-12-18T23:51:38.590Z,91.30
2022-12-18T23:55:44.048Z,86.00
2022-12-18T23:59:45.812Z,103.23
